createdAt,value
2019-05-22T00:01:44.036Z,4.73
2019-05-22T00:04:16.534Z,4.13
2019-05-22T00:06:47.825Z,5.00
2019-05-22T00:09:19.738Z,3.60
2019-05-22T00:11:52.233Z,3.50
2019-05-22T00:14:24.559Z,3.80
2019-05-22T00:16:54.503Z,3.27
2019-05-22T00:19:24.941Z,3.40
2019-05-22T00:22:00.999Z,3.50
2019-05-22T00:24:32.395Z,3.80
2019-05-22T00:27:04.973Z,4.00
2019-05-22T00:29:35.527Z,4.00
2019-05-22T00:32:05.433Z,3.70
2019-05-22T00:34:36.217Z,3.40
2019-05-22T00:37:07.897Z,4.30
2019-05-22T00:39:37.422Z,4.03
2019-05-22T00:42:11.483Z,4.17
2019-05-22T00:44:42.641Z,3.73
2019-05-22T00:47:14.436Z,4.50
2019-05-22T00:49:46.914Z,4.10
2019-05-22T00:52:45.199Z,4.37
2019-05-22T00:55:31.649Z,4.63
2019-05-22T00:58:05.991Z,4.17
2019-05-22T01:00:45.456Z,4.30
2019-05-22T01:03:19.128Z,4.10
2019-05-22T01:05:49.537Z,4.27
2019-05-22T01:08:20.556Z,4.70
2019-05-22T01:10:53.091Z,4.80
2019-05-22T01:13:22.823Z,4.70
2019-05-22T01:15:52.524Z,4.90
2019-05-22T01:18:26.010Z,4.70
2019-05-22T01:20:59.270Z,4.90
2019-05-22T01:23:33.270Z,4.93
2019-05-22T01:26:03.135Z,4.77
2019-05-22T01:28:35.778Z,4.77
2019-05-22T01:31:16.244Z,4.90
2019-05-22T01:33:50.042Z,5.10
2019-05-22T01:36:30.445Z,4.77
2019-05-22T01:39:16.251Z,4.60
2019-05-22T01:41:50.439Z,5.70
2019-05-22T01:44:22.112Z,4.63
2019-05-22T01:46:53.944Z,4.80
2019-05-22T01:49:25.585Z,5.30
2019-05-22T01:51:56.025Z,5.37
2019-05-22T01:54:25.915Z,4.67
2019-05-22T01:57:04.312Z,4.90
2019-05-22T01:59:36.889Z,5.43
2019-05-22T02:02:09.481Z,4.23
2019-05-22T02:04:39.556Z,5.20
2019-05-22T02:07:11.704Z,5.20
2019-05-22T02:09:42.997Z,4.47
2019-05-22T02:12:20.505Z,4.90
2019-05-22T02:14:52.058Z,5.23
2019-05-22T02:17:25.717Z,5.10
2019-05-22T02:19:55.676Z,5.43
2019-05-22T02:22:27.191Z,5.40
2019-05-22T02:24:57.861Z,4.97
2019-05-22T02:27:28.107Z,5.17
2019-05-22T02:29:59.129Z,4.87
2019-05-22T02:32:29.444Z,5.07
2019-05-22T02:34:58.889Z,5.10
2019-05-22T02:37:28.748Z,5.53
2019-05-22T02:39:58.657Z,5.27
2019-05-22T02:42:30.893Z,4.73
2019-05-22T02:45:01.722Z,4.40
2019-05-22T02:47:32.133Z,4.33
2019-05-22T02:50:01.639Z,4.03
2019-05-22T02:52:31.189Z,3.50
2019-05-22T02:55:00.858Z,3.90
2019-05-22T02:57:31.736Z,4.33
2019-05-22T03:00:01.791Z,3.90
2019-05-22T03:02:32.904Z,4.40
2019-05-22T03:05:08.626Z,3.93
2019-05-22T03:07:40.400Z,4.07
2019-05-22T03:10:13.519Z,4.70
2019-05-22T03:12:45.648Z,4.40
2019-05-22T03:15:18.124Z,4.90
2019-05-22T03:17:49.635Z,4.73
2019-05-22T03:20:21.889Z,4.83
2019-05-22T03:23:19.054Z,4.60
2019-05-22T03:25:48.542Z,5.50
2019-05-22T03:28:18.128Z,4.70
2019-05-22T03:30:50.308Z,4.53
2019-05-22T03:33:19.765Z,4.80
2019-05-22T03:35:52.085Z,4.87
2019-05-22T03:38:23.180Z,4.63
2019-05-22T03:40:54.701Z,5.03
2019-05-22T03:43:27.226Z,5.20
2019-05-22T03:45:58.913Z,4.50
2019-05-22T03:48:32.522Z,4.53
2019-05-22T03:51:12.399Z,4.80
2019-05-22T03:53:44.090Z,4.07
2019-05-22T03:56:17.612Z,4.53
2019-05-22T03:58:47.589Z,4.23
2019-05-22T04:01:19.507Z,5.13
2019-05-22T04:03:49.451Z,4.70
2019-05-22T04:06:21.967Z,5.43
2019-05-22T04:08:54.329Z,4.50
2019-05-22T04:11:27.830Z,4.10
2019-05-22T04:13:58.449Z,3.97
2019-05-22T04:16:28.778Z,4.13
2019-05-22T04:18:58.437Z,4.13
2019-05-22T04:21:30.185Z,4.70
2019-05-22T04:24:00.598Z,4.93
2019-05-22T04:26:30.827Z,4.07
2019-05-22T04:29:02.313Z,4.33
2019-05-22T04:31:42.075Z,4.57
2019-05-22T04:34:12.188Z,4.50
2019-05-22T04:36:41.763Z,4.37
2019-05-22T04:39:18.767Z,5.10
2019-05-22T04:41:48.622Z,5.20
2019-05-22T04:44:18.651Z,3.70
2019-05-22T04:46:48.559Z,4.00
2019-05-22T04:49:18.133Z,3.23
2019-05-22T04:51:47.794Z,2.97
2019-05-22T04:54:17.314Z,3.17
2019-05-22T04:56:47.401Z,3.43
2019-05-22T04:59:17.678Z,3.13
2019-05-22T05:01:47.485Z,2.90
2019-05-22T05:04:17.221Z,2.97
2019-05-22T05:06:46.681Z,3.10
2019-05-22T05:09:16.306Z,3.93
2019-05-22T05:11:46.904Z,3.10
2019-05-22T05:14:16.383Z,3.17
2019-05-22T05:16:46.993Z,3.00
2019-05-22T05:19:16.783Z,2.70
2019-05-22T05:21:46.339Z,3.20
2019-05-22T05:24:15.839Z,2.80
2019-05-22T05:26:46.477Z,2.30
2019-05-22T05:29:31.209Z,2.33
2019-05-22T05:32:01.306Z,2.70
2019-05-22T05:35:05.026Z,3.00
2019-05-22T05:37:34.868Z,2.80
2019-05-22T05:40:29.693Z,2.33
2019-05-22T05:43:00.124Z,2.55
2019-05-22T05:45:30.972Z,2.80
2019-05-22T05:48:02.729Z,2.60
2019-05-22T05:50:39.708Z,3.75
2019-05-22T05:53:08.970Z,2.77
2019-05-22T05:56:02.947Z,2.65
2019-05-22T05:58:32.964Z,5.15
2019-05-22T06:01:13.175Z,2.22
2019-05-22T06:03:43.461Z,2.02
2019-05-22T06:07:00.742Z,2.40
2019-05-22T06:09:30.832Z,2.37
2019-05-22T06:12:05.376Z,1.97
2019-05-22T06:14:35.568Z,1.83
2019-05-22T06:17:51.909Z,1.83
2019-05-22T06:20:24.133Z,2.23
2019-05-22T06:23:48.551Z,2.10
2019-05-22T06:27:00.335Z,1.83
2019-05-22T06:30:14.194Z,2.13
2019-05-22T06:33:21.782Z,2.07
2019-05-22T06:36:00.356Z,2.30
2019-05-22T06:39:15.548Z,2.10
2019-05-22T06:41:46.782Z,1.93
2019-05-22T06:44:35.331Z,2.50
2019-05-22T06:47:06.901Z,1.97
2019-05-22T06:49:47.843Z,2.57
2019-05-22T06:52:17.993Z,2.20
2019-05-22T06:54:47.755Z,2.50
2019-05-22T06:57:39.263Z,2.37
2019-05-22T07:00:15.196Z,4.13
2019-05-22T07:02:47.305Z,3.07
2019-05-22T07:05:17.040Z,2.90
2019-05-22T07:07:47.134Z,2.00
2019-05-22T07:10:16.841Z,2.13
2019-05-22T07:12:50.512Z,2.20
2019-05-22T07:15:41.835Z,2.50
2019-05-22T07:18:13.463Z,2.40
2019-05-22T07:20:45.714Z,2.70
2019-05-22T07:26:25.021Z,2.07
2019-05-22T07:29:04.465Z,2.03
2019-05-22T07:31:32.199Z,2.10
2019-05-22T07:34:01.763Z,2.50
2019-05-22T07:36:33.115Z,2.57
2019-05-22T07:39:04.738Z,1.80
2019-05-22T07:41:35.301Z,1.77
2019-05-22T07:44:05.250Z,1.70
2019-05-22T07:46:35.063Z,1.70
2019-05-22T07:49:05.281Z,2.40
2019-05-22T07:51:50.438Z,2.30
2019-05-22T07:54:07.117Z,1.67
2019-05-22T07:56:37.534Z,2.10
2019-05-22T07:59:06.905Z,2.70
2019-05-22T08:01:36.648Z,2.00
2019-05-22T08:04:06.696Z,1.17
2019-05-22T08:06:36.282Z,1.50
2019-05-22T08:09:09.602Z,1.60
2019-05-22T08:11:39.673Z,4.00
2019-05-22T08:14:11.178Z,1.70
2019-05-22T08:16:41.760Z,1.50
2019-05-22T08:19:11.347Z,1.27
2019-05-22T08:21:42.323Z,1.45
2019-05-22T08:24:11.869Z,1.32
2019-05-22T08:26:53.852Z,1.00
2019-05-22T08:29:15.283Z,1.20
2019-05-22T08:31:45.491Z,1.30
2019-05-22T08:34:16.505Z,2.58
2019-05-22T08:36:48.925Z,1.90
2019-05-22T08:39:19.196Z,1.10
2019-05-22T08:41:49.122Z,1.87
2019-05-22T08:44:19.149Z,1.25
2019-05-22T08:46:49.692Z,1.67
2019-05-22T08:49:19.463Z,1.15
2019-05-22T08:51:49.830Z,0.90
2019-05-22T08:54:19.917Z,1.95
2019-05-22T08:56:52.068Z,1.10
2019-05-22T08:59:22.487Z,0.95
2019-05-22T09:01:52.363Z,0.95
2019-05-22T09:04:22.386Z,0.70
2019-05-22T09:06:51.890Z,0.93
2019-05-22T09:09:22.028Z,0.80
2019-05-22T09:11:51.668Z,0.70
2019-05-22T09:14:21.074Z,0.70
2019-05-22T09:16:50.944Z,0.80
2019-05-22T09:19:20.905Z,0.98
2019-05-22T09:21:50.904Z,1.00
2019-05-22T09:24:21.386Z,0.85
2019-05-22T09:26:50.879Z,0.88
2019-05-22T09:29:20.954Z,1.00
2019-05-22T09:31:50.924Z,1.02
2019-05-22T09:34:20.544Z,0.70
2019-05-22T09:36:49.946Z,0.80
2019-05-22T09:39:19.749Z,0.88
2019-05-22T09:41:49.213Z,0.90
2019-05-22T09:44:18.642Z,0.98
2019-05-22T09:46:49.423Z,0.90
2019-05-22T09:49:19.116Z,0.70
2019-05-22T09:51:48.628Z,1.10
2019-05-22T09:54:18.284Z,0.90
2019-05-22T09:56:47.830Z,1.02
2019-05-22T09:59:18.821Z,0.93
2019-05-22T10:01:48.375Z,0.82
2019-05-22T10:04:17.866Z,1.10
2019-05-22T10:06:47.850Z,1.22
2019-05-22T10:09:17.631Z,0.80
2019-05-22T10:11:47.822Z,0.80
2019-05-22T10:14:17.617Z,0.80
2019-05-22T10:16:47.074Z,1.00
2019-05-22T10:19:16.634Z,0.90
2019-05-22T10:21:47.322Z,0.98
2019-05-22T10:24:16.938Z,1.40
2019-05-22T10:26:46.719Z,1.10
2019-05-22T10:29:16.326Z,1.37
2019-05-22T10:31:45.866Z,1.30
2019-05-22T10:34:15.472Z,1.10
2019-05-22T10:36:44.910Z,1.77
2019-05-22T10:39:14.544Z,1.07
2019-05-22T10:41:44.258Z,1.30
2019-05-22T10:44:13.708Z,1.22
2019-05-22T10:46:44.509Z,0.70
2019-05-22T10:49:14.109Z,1.00
2019-05-22T10:51:43.840Z,1.10
2019-05-22T10:54:13.214Z,1.12
2019-05-22T10:56:43.751Z,1.00
2019-05-22T10:59:13.372Z,0.95
2019-05-22T11:01:42.781Z,0.90
2019-05-22T11:04:12.888Z,0.93
2019-05-22T11:06:42.708Z,0.90
2019-05-22T11:09:13.701Z,1.30
2019-05-22T11:11:43.346Z,1.82
2019-05-22T11:14:14.323Z,1.00
2019-05-22T11:16:44.038Z,1.45
2019-05-22T11:19:13.517Z,1.50
2019-05-22T11:21:43.716Z,1.00
2019-05-22T11:24:13.211Z,1.25
2019-05-22T11:26:43.937Z,1.05
2019-05-22T11:29:14.025Z,1.35
2019-05-22T11:31:44.430Z,1.42
2019-05-22T11:34:14.390Z,1.12
2019-05-22T11:36:44.013Z,0.98
2019-05-22T11:39:17.023Z,1.50
2019-05-22T11:41:47.841Z,0.95
2019-05-22T11:44:17.823Z,1.00
2019-05-22T11:46:47.328Z,1.10
2019-05-22T11:49:17.070Z,1.22
2019-05-22T11:51:47.045Z,1.30
2019-05-22T11:54:16.596Z,1.00
2019-05-22T11:56:46.236Z,0.90
2019-05-22T11:59:16.177Z,1.25
2019-05-22T12:01:46.153Z,1.10
2019-05-22T12:04:16.266Z,0.90
2019-05-22T12:06:47.096Z,0.90
2019-05-22T12:09:16.613Z,0.95
2019-05-22T12:11:46.742Z,1.17
2019-05-22T12:14:17.830Z,1.00
2019-05-22T12:16:47.909Z,0.90
2019-05-22T12:19:17.582Z,1.52
2019-05-22T12:21:47.005Z,1.50
2019-05-22T12:24:27.219Z,6.60
2019-05-22T12:26:48.464Z,1.60
2019-05-22T12:29:18.300Z,1.20
2019-05-22T12:31:47.986Z,1.17
2019-05-22T12:34:18.104Z,1.20
2019-05-22T12:36:51.179Z,0.98
2019-05-22T12:39:19.367Z,1.00
2019-05-22T12:41:49.865Z,1.25
2019-05-22T12:44:20.219Z,1.05
2019-05-22T12:46:50.510Z,0.90
2019-05-22T12:49:20.794Z,0.82
2019-05-22T12:51:50.802Z,0.90
2019-05-22T12:54:20.291Z,1.00
2019-05-22T12:56:50.415Z,0.80
2019-05-22T12:59:20.246Z,0.98
2019-05-22T13:01:51.915Z,1.10
2019-05-22T13:04:23.355Z,1.02
2019-05-22T13:06:52.964Z,1.22
2019-05-22T13:09:22.601Z,2.35
2019-05-22T13:11:52.394Z,1.20
2019-05-22T13:14:21.749Z,3.27
2019-05-22T13:16:51.355Z,1.20
2019-05-22T13:19:21.383Z,1.20
2019-05-22T13:21:53.036Z,0.68
2019-05-22T13:24:23.379Z,0.80
2019-05-22T13:26:53.270Z,0.70
2019-05-22T13:29:24.045Z,0.70
2019-05-22T13:31:54.527Z,0.53
2019-05-22T13:34:27.033Z,0.80
2019-05-22T13:36:58.082Z,1.45
2019-05-22T13:39:27.821Z,1.85
2019-05-22T13:41:57.320Z,1.10
2019-05-22T13:44:27.455Z,1.60
2019-05-22T13:46:57.941Z,1.90
2019-05-22T13:49:29.594Z,1.40
2019-05-22T13:52:00.379Z,1.10
2019-05-22T13:54:30.380Z,1.50
2019-05-22T13:57:00.558Z,1.70
2019-05-22T13:59:30.712Z,1.50
2019-05-22T14:02:00.331Z,1.50
2019-05-22T14:04:29.854Z,1.60
2019-05-22T14:06:59.437Z,1.20
2019-05-22T14:09:29.372Z,1.40
2019-05-22T14:11:59.228Z,1.50
2019-05-22T14:14:28.997Z,2.67
2019-05-22T14:16:58.589Z,1.85
2019-05-22T14:19:28.185Z,2.25
2019-05-22T14:21:57.687Z,2.05
2019-05-22T14:24:27.226Z,2.27
2019-05-22T14:26:56.974Z,1.87
2019-05-22T14:29:26.527Z,1.87
2019-05-22T14:31:56.438Z,2.00
2019-05-22T14:34:26.621Z,2.37
2019-05-22T14:36:57.631Z,2.77
2019-05-22T14:39:28.481Z,1.82
2019-05-22T14:41:59.276Z,1.85
2019-05-22T14:44:28.838Z,2.45
2019-05-22T14:47:12.195Z,2.72
2019-05-22T14:49:29.643Z,2.27
2019-05-22T14:51:59.156Z,1.42
2019-05-22T14:54:28.979Z,2.35
2019-05-22T14:56:58.514Z,2.37
2019-05-22T14:59:28.069Z,2.00
2019-05-22T15:01:58.512Z,1.90
2019-05-22T15:04:28.228Z,2.33
2019-05-22T15:06:57.960Z,1.55
2019-05-22T15:09:27.741Z,2.80
2019-05-22T15:11:57.304Z,1.50
2019-05-22T15:14:26.875Z,1.95
2019-05-22T15:16:56.393Z,2.25
2019-05-22T15:19:26.217Z,2.30
2019-05-22T15:21:55.632Z,1.62
2019-05-22T15:24:26.488Z,2.22
2019-05-22T15:26:56.961Z,1.35
2019-05-22T15:29:26.556Z,1.80
2019-05-22T15:31:56.768Z,2.25
2019-05-22T15:34:26.580Z,2.75
2019-05-22T15:36:57.397Z,2.12
2019-05-22T15:39:28.836Z,2.35
2019-05-22T15:41:59.470Z,2.00
2019-05-22T15:44:29.863Z,2.25
2019-05-22T15:46:59.411Z,2.35
2019-05-22T15:49:30.267Z,2.40
2019-05-22T15:52:00.216Z,2.72
2019-05-22T15:54:31.258Z,2.20
2019-05-22T15:57:03.828Z,1.77
2019-05-22T15:59:35.889Z,1.75
2019-05-22T16:02:06.396Z,2.42
2019-05-22T16:04:38.971Z,1.95
2019-05-22T16:07:09.184Z,2.17
2019-05-22T16:09:38.905Z,2.65
2019-05-22T16:12:09.321Z,2.15
2019-05-22T16:14:39.971Z,3.35
2019-05-22T16:17:09.987Z,3.30
2019-05-22T16:19:40.234Z,2.65
2019-05-22T16:22:11.755Z,2.45
2019-05-22T16:24:41.743Z,2.25
2019-05-22T16:27:14.297Z,2.92
2019-05-22T16:29:45.047Z,3.02
2019-05-22T16:32:17.854Z,2.40
2019-05-22T16:34:47.808Z,2.85
2019-05-22T16:37:17.825Z,2.77
2019-05-22T16:39:50.219Z,2.42
2019-05-22T16:42:19.358Z,3.00
2019-05-22T16:44:49.006Z,2.42
2019-05-22T16:47:19.934Z,2.90
2019-05-22T16:49:51.490Z,2.22
2019-05-22T16:52:21.215Z,2.27
2019-05-22T16:54:51.226Z,2.80
2019-05-22T16:57:21.136Z,2.33
2019-05-22T16:59:51.290Z,2.62
2019-05-22T17:02:21.430Z,2.85
2019-05-22T17:04:51.625Z,2.45
2019-05-22T17:07:21.507Z,2.90
2019-05-22T17:09:52.585Z,3.12
2019-05-22T17:12:23.392Z,3.30
2019-05-22T17:14:53.778Z,2.90
2019-05-22T17:17:23.398Z,3.60
2019-05-22T17:19:53.203Z,2.70
2019-05-22T17:22:24.098Z,2.87
2019-05-22T17:24:53.832Z,2.70
2019-05-22T17:27:23.409Z,3.77
2019-05-22T17:29:53.001Z,3.17
2019-05-22T17:32:24.797Z,3.10
2019-05-22T17:34:54.434Z,3.65
2019-05-22T17:37:27.070Z,3.10
2019-05-22T17:39:56.753Z,3.55
2019-05-22T17:42:28.252Z,3.58
2019-05-22T17:44:59.495Z,3.42
2019-05-22T17:47:30.712Z,3.35
2019-05-22T17:50:01.915Z,3.42
2019-05-22T17:52:32.764Z,3.22
2019-05-22T17:55:03.137Z,2.75
2019-05-22T17:57:32.765Z,3.50
2019-05-22T18:00:04.210Z,2.50
2019-05-22T18:02:35.453Z,3.55
2019-05-22T18:05:06.965Z,4.35
2019-05-22T18:07:37.231Z,3.67
2019-05-22T18:10:08.537Z,3.65
2019-05-22T18:12:39.669Z,3.52
2019-05-22T18:15:11.170Z,3.72
2019-05-22T18:17:41.054Z,3.83
2019-05-22T18:20:12.628Z,4.53
2019-05-22T18:22:42.666Z,3.12
2019-05-22T18:25:13.605Z,3.37
2019-05-22T18:27:43.912Z,3.33
2019-05-22T18:30:14.211Z,3.87
2019-05-22T18:32:44.072Z,3.70
2019-05-22T18:35:15.326Z,4.05
2019-05-22T18:37:44.837Z,4.28
2019-05-22T18:40:15.606Z,3.72
2019-05-22T18:42:45.141Z,5.03
2019-05-22T18:45:14.872Z,4.85
2019-05-22T18:47:44.416Z,4.47
2019-05-22T18:50:16.263Z,3.70
2019-05-22T18:52:49.572Z,3.50
2019-05-22T18:55:19.856Z,4.13
2019-05-22T18:57:49.293Z,4.30
2019-05-22T19:00:22.468Z,5.60
2019-05-22T19:02:52.044Z,3.87
2019-05-22T19:05:25.422Z,3.20
2019-05-22T19:07:55.203Z,3.53
2019-05-22T19:10:24.773Z,3.72
2019-05-22T19:12:54.336Z,3.83
2019-05-22T19:15:24.441Z,4.00
2019-05-22T19:17:54.464Z,4.33
2019-05-22T19:20:24.136Z,5.30
2019-05-22T19:23:00.542Z,5.85
2019-05-22T19:25:25.363Z,5.77
2019-05-22T19:27:54.855Z,4.90
2019-05-22T19:30:24.847Z,4.23
2019-05-22T19:32:54.289Z,5.83
2019-05-22T19:35:23.872Z,4.60
2019-05-22T19:37:53.773Z,6.37
2019-05-22T19:40:23.661Z,5.97
2019-05-22T19:42:53.203Z,7.60
2019-05-22T19:45:24.934Z,4.80
2019-05-22T19:47:56.933Z,4.67
2019-05-22T19:50:27.010Z,4.50
2019-05-22T19:52:57.693Z,3.90
2019-05-22T19:55:28.724Z,3.80
2019-05-22T19:57:58.897Z,3.60
2019-05-22T20:00:30.528Z,3.27
2019-05-22T20:02:59.994Z,3.33
2019-05-22T20:05:29.885Z,2.90
2019-05-22T20:08:00.066Z,3.33
2019-05-22T20:10:29.609Z,2.60
2019-05-22T20:12:59.625Z,3.37
2019-05-22T20:15:29.192Z,2.80
2019-05-22T20:17:58.748Z,2.67
2019-05-22T20:20:28.240Z,2.33
2019-05-22T20:22:58.484Z,2.47
2019-05-22T20:25:28.345Z,2.90
2019-05-22T20:27:59.244Z,2.80
2019-05-22T20:30:28.859Z,3.00
2019-05-22T20:32:58.322Z,3.73
2019-05-22T20:35:27.871Z,3.10
2019-05-22T20:38:00.425Z,3.23
2019-05-22T20:40:30.289Z,3.43
2019-05-22T20:43:00.363Z,3.40
2019-05-22T20:45:30.832Z,12.27
2019-05-22T20:48:21.850Z,3.53
2019-05-22T20:50:51.597Z,3.37
2019-05-22T20:53:22.010Z,3.20
2019-05-22T20:55:52.519Z,2.77
2019-05-22T20:58:23.091Z,2.67
2019-05-22T21:00:53.300Z,2.30
2019-05-22T21:03:23.086Z,2.53
2019-05-22T21:05:54.347Z,2.27
2019-05-22T21:08:26.642Z,1.90
2019-05-22T21:10:58.733Z,1.87
2019-05-22T21:13:28.482Z,2.03
2019-05-22T21:15:58.679Z,1.83
2019-05-22T21:18:34.699Z,1.63
2019-05-22T21:21:05.349Z,1.37
2019-05-22T21:23:35.743Z,1.87
2019-05-22T21:26:05.475Z,2.00
2019-05-22T21:28:35.419Z,1.50
2019-05-22T21:31:05.998Z,1.90
2019-05-22T21:33:36.125Z,1.67
2019-05-22T21:36:06.299Z,1.53
2019-05-22T21:38:36.206Z,1.70
2019-05-22T21:41:06.392Z,2.07
2019-05-22T21:43:36.122Z,1.57
2019-05-22T21:46:05.834Z,1.87
2019-05-22T21:48:36.513Z,1.70
2019-05-22T21:51:07.589Z,1.50
2019-05-22T21:53:37.946Z,1.80
2019-05-22T21:56:08.239Z,1.73
2019-05-22T21:58:38.559Z,1.57
2019-05-22T22:01:17.878Z,1.50
2019-05-22T22:03:52.543Z,1.60
2019-05-22T22:06:22.779Z,1.70
2019-05-22T22:08:52.795Z,1.70
2019-05-22T22:11:25.892Z,1.83
2019-05-22T22:13:56.522Z,1.87
2019-05-22T22:16:26.967Z,1.70
2019-05-22T22:18:56.828Z,1.47
2019-05-22T22:21:27.144Z,1.47
2019-05-22T22:23:57.408Z,1.60
2019-05-22T22:26:29.830Z,1.83
2019-05-22T22:28:59.591Z,1.70
2019-05-22T22:31:32.382Z,1.70
2019-05-22T22:34:15.030Z,1.57
2019-05-22T22:36:44.526Z,1.57
2019-05-22T22:39:15.176Z,2.10
2019-05-22T22:41:46.237Z,1.60
2019-05-22T22:47:42.244Z,2.10
2019-05-22T22:50:13.249Z,1.73
2019-05-22T22:52:45.905Z,1.80
2019-05-22T22:55:17.576Z,1.90
2019-05-22T22:57:50.881Z,1.77
2019-05-22T23:00:38.105Z,2.33
2019-05-22T23:03:11.765Z,1.90
2019-05-22T23:05:43.151Z,1.80
2019-05-22T23:08:17.339Z,2.10
2019-05-22T23:10:47.627Z,2.03
2019-05-22T23:13:17.994Z,1.83
2019-05-22T23:15:49.054Z,2.00
2019-05-22T23:18:47.615Z,1.67
2019-05-22T23:21:16.227Z,1.80
2019-05-22T23:24:20.229Z,1.70
2019-05-22T23:26:50.846Z,1.70
2019-05-22T23:29:21.273Z,1.90
2019-05-22T23:31:50.812Z,1.90
2019-05-22T23:34:20.517Z,2.07
2019-05-22T23:36:50.525Z,2.13
2019-05-22T23:39:21.913Z,1.93
2019-05-22T23:41:56.307Z,2.00
2019-05-22T23:44:25.348Z,1.90
2019-05-22T23:46:56.058Z,1.70
2019-05-22T23:49:26.167Z,2.43
2019-05-22T23:51:55.937Z,1.97
2019-05-22T23:54:25.973Z,2.30
2019-05-22T23:56:57.063Z,2.20
2019-05-22T23:59:27.971Z,2.40
